sensor_id;sensor_type;location;lat;lon;timestamp;pressure;altitude;pressure_sealevel;temperature;humidity
69717;BME280;67420;46.144;19.666;2023-08-21T00:05:11;100544.97;;;24.69;57.42
69717;BME280;67420;46.144;19.666;2023-08-21T00:15:13;100540.59;;;24.68;57.12
69717;BME280;67420;46.144;19.666;2023-08-21T00:25:15;100540.03;;;24.64;56.99
69717;BME280;67420;46.144;19.666;2023-08-21T00:35:17;100543.88;;;24.62;56.80
69717;BME280;67420;46.144;19.666;2023-08-21T00:45:19;100546.56;;;24.62;56.80
69717;BME280;67420;46.144;19.666;2023-08-21T00:55:22;100547.84;;;24.58;56.77
69717;BME280;67420;46.144;19.666;2023-08-21T01:05:25;100538.22;;;24.55;56.93
69717;BME280;67420;46.144;19.666;2023-08-21T01:15:27;100531.56;;;24.50;56.54
69717;BME280;67420;46.144;19.666;2023-08-21T01:25:30;100527.44;;;24.46;56.73
69717;BME280;67420;46.144;19.666;2023-08-21T01:35:33;100533.41;;;24.49;56.52
69717;BME280;67420;46.144;19.666;2023-08-21T01:45:37;100526.75;;;24.44;56.76
69717;BME280;67420;46.144;19.666;2023-08-21T01:55:39;100533.84;;;24.45;56.46
69717;BME280;67420;46.144;19.666;2023-08-21T02:05:41;100515.72;;;24.37;56.60
69717;BME280;67420;46.144;19.666;2023-08-21T02:15:43;100534.44;;;24.39;56.38
69717;BME280;67420;46.144;19.666;2023-08-21T02:25:46;100540.97;;;24.36;57.23
69717;BME280;67420;46.144;19.666;2023-08-21T02:35:48;100532.47;;;24.31;56.94
69717;BME280;67420;46.144;19.666;2023-08-21T02:45:50;100541.13;;;24.34;56.31
69717;BME280;67420;46.144;19.666;2023-08-21T02:55:52;100526.78;;;24.34;55.23
69717;BME280;67420;46.144;19.666;2023-08-21T03:05:54;100542.41;;;24.30;54.85
69717;BME280;67420;46.144;19.666;2023-08-21T03:15:56;100545.22;;;24.29;54.83
69717;BME280;67420;46.144;19.666;2023-08-21T03:25:58;100547.22;;;24.27;54.71
69717;BME280;67420;46.144;19.666;2023-08-21T03:36:00;100548.34;;;24.24;54.48
69717;BME280;67420;46.144;19.666;2023-08-21T03:46:03;100565.94;;;24.28;54.59
69717;BME280;67420;46.144;19.666;2023-08-21T03:56:06;100558.53;;;24.21;54.56
69717;BME280;67420;46.144;19.666;2023-08-21T04:06:08;100565.22;;;24.26;54.76
69717;BME280;67420;46.144;19.666;2023-08-21T04:16:10;100566.22;;;24.25;54.54
69717;BME280;67420;46.144;19.666;2023-08-21T04:26:14;100582.38;;;24.25;55.23
69717;BME280;67420;46.144;19.666;2023-08-21T04:36:17;100578.53;;;24.18;55.26
69717;BME280;67420;46.144;19.666;2023-08-21T04:46:18;100596.25;;;24.21;55.61
69717;BME280;67420;46.144;19.666;2023-08-21T04:56:22;100599.06;;;24.19;55.57
69717;BME280;67420;46.144;19.666;2023-08-21T05:06:24;100596.00;;;24.14;55.22
69717;BME280;67420;46.144;19.666;2023-08-21T05:16:25;100592.00;;;24.09;54.92
69717;BME280;67420;46.144;19.666;2023-08-21T05:26:28;100603.22;;;24.14;54.40
69717;BME280;67420;46.144;19.666;2023-08-21T05:36:30;100603.22;;;24.14;54.00
69717;BME280;67420;46.144;19.666;2023-08-21T05:46:32;100600.81;;;24.11;56.34
69717;BME280;67420;46.144;19.666;2023-08-21T05:56:34;100604.03;;;24.24;57.50
69717;BME280;67420;46.144;19.666;2023-08-21T06:06:36;100592.13;;;24.46;58.00
69717;BME280;67420;46.144;19.666;2023-08-21T06:16:38;100614.53;;;24.65;57.97
69717;BME280;67420;46.144;19.666;2023-08-21T06:26:41;100615.75;;;24.71;58.92
69717;BME280;67420;46.144;19.666;2023-08-21T06:36:43;100596.19;;;24.69;59.12
69717;BME280;67420;46.144;19.666;2023-08-21T06:46:45;100622.84;;;24.72;59.43
69717;BME280;67420;46.144;19.666;2023-08-21T06:56:47;100637.16;;;24.82;59.33
69717;BME280;67420;46.144;19.666;2023-08-21T07:06:49;100636.16;;;24.83;59.38
69717;BME280;67420;46.144;19.666;2023-08-21T07:16:51;100635.19;;;24.84;59.39
69717;BME280;67420;46.144;19.666;2023-08-21T07:26:53;100637.59;;;24.87;59.67
69717;BME280;67420;46.144;19.666;2023-08-21T07:36:55;100638.16;;;24.91;59.58
69717;BME280;67420;46.144;19.666;2023-08-21T07:46:57;100634.44;;;24.92;59.61
69717;BME280;67420;46.144;19.666;2023-08-21T07:57:00;100638.69;;;24.94;59.94
69717;BME280;67420;46.144;19.666;2023-08-21T08:07:02;100627.78;;;24.96;59.78
69717;BME280;67420;46.144;19.666;2023-08-21T08:17:03;100625.94;;;24.96;60.09
69717;BME280;67420;46.144;19.666;2023-08-21T08:27:06;100631.03;;;24.99;60.24
69717;BME280;67420;46.144;19.666;2023-08-21T08:37:08;100621.22;;;24.98;60.14
69717;BME280;67420;46.144;19.666;2023-08-21T08:47:11;100622.09;;;24.99;60.17
69717;BME280;67420;46.144;19.666;2023-08-21T08:57:13;100630.31;;;25.07;60.00
69717;BME280;67420;46.144;19.666;2023-08-21T09:07:17;100623.63;;;25.11;60.17
69717;BME280;67420;46.144;19.666;2023-08-21T09:17:20;100607.72;;;25.08;60.17
69717;BME280;67420;46.144;19.666;2023-08-21T09:27:22;100611.38;;;25.17;60.03
69717;BME280;67420;46.144;19.666;2023-08-21T09:37:28;100606.00;;;25.17;60.08
69717;BME280;67420;46.144;19.666;2023-08-21T09:47:33;100600.59;;;25.17;60.09
69717;BME280;67420;46.144;19.666;2023-08-21T09:57:36;100594.19;;;25.18;60.56
69717;BME280;67420;46.144;19.666;2023-08-21T10:07:40;100592.03;;;25.21;60.21
69717;BME280;67420;46.144;19.666;2023-08-21T10:17:43;100584.97;;;25.20;60.65
69717;BME280;67420;46.144;19.666;2023-08-21T10:27:46;100580.22;;;25.22;60.74
69717;BME280;67420;46.144;19.666;2023-08-21T10:48:13;100572.13;;;25.22;60.72
69717;BME280;67420;46.144;19.666;2023-08-21T10:58:16;100575.69;;;25.23;60.90
69717;BME280;67420;46.144;19.666;2023-08-21T11:08:18;100564.59;;;25.26;61.19
69717;BME280;67420;46.144;19.666;2023-08-21T11:18:20;100551.97;;;25.26;61.27
69717;BME280;67420;46.144;19.666;2023-08-21T11:28:28;100550.41;;;25.24;60.93
69717;BME280;67420;46.144;19.666;2023-08-21T11:38:30;100541.16;;;25.26;61.38
69717;BME280;67420;46.144;19.666;2023-08-21T11:48:33;100532.91;;;25.28;61.16
69717;BME280;67420;46.144;19.666;2023-08-21T11:58:43;100530.22;;;25.28;61.58
69717;BME280;67420;46.144;19.666;2023-08-21T12:08:47;100527.53;;;25.28;61.21
69717;BME280;67420;46.144;19.666;2023-08-21T12:18:49;100519.44;;;25.28;61.05
69717;BME280;67420;46.144;19.666;2023-08-21T12:28:53;100522.97;;;25.28;61.10
69717;BME280;67420;46.144;19.666;2023-08-21T12:38:55;100494.59;;;25.24;61.36
69717;BME280;67420;46.144;19.666;2023-08-21T12:48:57;100511.19;;;25.29;61.48
69717;BME280;67420;46.144;19.666;2023-08-21T12:59:00;100488.75;;;25.29;61.67
69717;BME280;67420;46.144;19.666;2023-08-21T13:09:03;100488.44;;;25.32;61.40
69717;BME280;67420;46.144;19.666;2023-08-21T13:19:05;100471.72;;;25.28;61.50
69717;BME280;67420;46.144;19.666;2023-08-21T13:29:08;100467.72;;;25.32;61.84
69717;BME280;67420;46.144;19.666;2023-08-21T13:39:10;100471.25;;;25.33;61.68
69717;BME280;67420;46.144;19.666;2023-08-21T13:49:14;100459.31;;;25.35;61.40
69717;BME280;67420;46.144;19.666;2023-08-21T13:59:17;100458.00;;;25.40;61.87
69717;BME280;67420;46.144;19.666;2023-08-21T14:09:19;100442.66;;;25.40;62.06
69717;BME280;67420;46.144;19.666;2023-08-21T14:19:21;100430.16;;;25.39;61.94
69717;BME280;67420;46.144;19.666;2023-08-21T14:29:24;100426.16;;;25.43;62.12
69717;BME280;67420;46.144;19.666;2023-08-21T14:39:26;100419.06;;;25.42;62.41
69717;BME280;67420;46.144;19.666;2023-08-21T14:49:28;100425.16;;;25.44;62.70
69717;BME280;67420;46.144;19.666;2023-08-21T14:59:30;100407.56;;;25.40;62.45
69717;BME280;67420;46.144;19.666;2023-08-21T15:09:33;100412.16;;;25.48;62.32
69717;BME280;67420;46.144;19.666;2023-08-21T15:19:38;100408.97;;;25.44;62.12
69717;BME280;67420;46.144;19.666;2023-08-21T15:29:40;100412.16;;;25.48;61.97
69717;BME280;67420;46.144;19.666;2023-08-21T15:39:42;100411.00;;;25.50;62.27
69717;BME280;67420;46.144;19.666;2023-08-21T15:49:46;100419.13;;;25.50;62.41
69717;BME280;67420;46.144;19.666;2023-08-21T15:59:49;100402.56;;;25.45;62.24
69717;BME280;67420;46.144;19.666;2023-08-21T16:09:51;100409.31;;;25.49;62.40
69717;BME280;67420;46.144;19.666;2023-08-21T16:19:52;100414.56;;;25.51;62.21
69717;BME280;67420;46.144;19.666;2023-08-21T16:29:56;100407.63;;;25.48;62.63
69717;BME280;67420;46.144;19.666;2023-08-21T16:39:58;100407.47;;;25.50;61.93
69717;BME280;67420;46.144;19.666;2023-08-21T16:50:00;100414.72;;;25.49;61.80
69717;BME280;67420;46.144;19.666;2023-08-21T17:00:05;100411.00;;;25.50;62.04
69717;BME280;67420;46.144;19.666;2023-08-21T17:10:13;100413.72;;;25.50;62.24
69717;BME280;67420;46.144;19.666;2023-08-21T17:20:15;100408.31;;;25.50;61.81
69717;BME280;67420;46.144;19.666;2023-08-21T17:30:20;100418.25;;;25.50;62.03
69717;BME280;67420;46.144;19.666;2023-08-21T17:40:22;100428.56;;;25.46;61.64
69717;BME280;67420;46.144;19.666;2023-08-21T17:50:25;100441.56;;;25.51;61.65
69717;BME280;67420;46.144;19.666;2023-08-21T18:00:27;100444.25;;;25.51;61.98
69717;BME280;67420;46.144;19.666;2023-08-21T18:10:34;100459.44;;;25.52;62.26
69717;BME280;67420;46.144;19.666;2023-08-21T18:21:08;100461.16;;;25.53;61.82
69717;BME280;67420;46.144;19.666;2023-08-21T18:31:11;100465.53;;;25.54;62.07
69717;BME280;67420;46.144;19.666;2023-08-21T18:41:14;100478.19;;;25.53;61.74
69717;BME280;67420;46.144;19.666;2023-08-21T18:51:16;100485.28;;;25.54;61.76
69717;BME280;67420;46.144;19.666;2023-08-21T19:01:18;100489.84;;;25.54;61.88
69717;BME280;67420;46.144;19.666;2023-08-21T19:11:20;100488.84;;;25.55;61.81
69717;BME280;67420;46.144;19.666;2023-08-21T19:21:24;100485.28;;;25.54;61.82
69717;BME280;67420;46.144;19.666;2023-08-21T19:31:27;100485.75;;;25.50;62.04
69717;BME280;67420;46.144;19.666;2023-08-21T19:41:31;100496.94;;;25.55;61.86
69717;BME280;67420;46.144;19.666;2023-08-21T19:51:33;100498.63;;;25.56;61.75
69717;BME280;67420;46.144;19.666;2023-08-21T20:08:42;100498.31;;;25.59;63.05
69717;BME280;67420;46.144;19.666;2023-08-21T20:18:44;100505.00;;;25.64;62.74
69717;BME280;67420;46.144;19.666;2023-08-21T20:28:46;100515.06;;;25.62;65.40
69717;BME280;67420;46.144;19.666;2023-08-21T20:38:48;100512.66;;;25.59;64.31
69717;BME280;67420;46.144;19.666;2023-08-21T20:48:51;100531.56;;;25.59;64.38
69717;BME280;67420;46.144;19.666;2023-08-21T20:58:53;100532.28;;;25.61;64.50
69717;BME280;67420;46.144;19.666;2023-08-21T21:08:56;100528.28;;;25.65;63.73
69717;BME280;67420;46.144;19.666;2023-08-21T21:18:58;100517.22;;;25.59;64.01
69717;BME280;67420;46.144;19.666;2023-08-21T21:29:00;100524.59;;;25.66;63.50
69717;BME280;67420;46.144;19.666;2023-08-21T21:39:07;100534.38;;;25.67;63.42
69717;BME280;67420;46.144;19.666;2023-08-21T21:49:12;100530.69;;;25.68;63.26
69717;BME280;67420;46.144;19.666;2023-08-21T21:59:14;100534.38;;;25.67;63.31
69717;BME280;67420;46.144;19.666;2023-08-21T22:09:16;100538.63;;;25.70;63.34
69717;BME280;67420;46.144;19.666;2023-08-21T22:19:19;100534.38;;;25.67;63.46
69717;BME280;67420;46.144;19.666;2023-08-21T22:29:21;100536.09;;;25.68;63.59
69717;BME280;67420;46.144;19.666;2023-08-21T22:39:23;100536.09;;;25.68;63.63
69717;BME280;67420;46.144;19.666;2023-08-21T22:49:27;100528.44;;;25.64;63.37
69717;BME280;67420;46.144;19.666;2023-08-21T22:59:29;100525.28;;;25.68;63.78
69717;BME280;67420;46.144;19.666;2023-08-21T23:09:31;100514.78;;;25.65;63.85
69717;BME280;67420;46.144;19.666;2023-08-21T23:19:35;100513.63;;;25.68;63.21
69717;BME280;67420;46.144;19.666;2023-08-21T23:29:38;100503.00;;;25.66;63.63
69717;BME280;67420;46.144;19.666;2023-08-21T23:39:39;100505.91;;;25.73;63.34
69717;BME280;67420;46.144;19.666;2023-08-21T23:49:42;100505.91;;;25.73;62.98
69717;BME280;67420;46.144;19.666;2023-08-21T23:59:43;100508.28;;;25.76;63.14
